CheckWX is a tool to help pilots better visualize weather data.  It is not intended as a substitute for an official pre-flight weather briefing.

20:44:17 UTC

EPKK METAR
John Paul II International Kraków-Balice Airport
Kraków, Poland
Current

14 mins ago

EPKK 292030Z 22009KT 9999 SCT030 BKN060 01/M00 Q1006
Observed
Jan-29 @ 20:30 UTC
Wind
  • 220° at 9 KTS
Visibility
10,000+ meters
Flight Rules
VFR
Cloud Levels
  • Scattered at 3,000' AGL
  • Broken at 6,000' AGL
Temperature
C / 34°F
Dewpoint
C / 32°F
Humidity
93%
Altimeter
29.7" Hg
Pressure
1005.92 hPa
Previous

44 mins ago

EPKK 292000Z 23011KT 9999 FEW011 BKN030 01/M00 Q1006
Observed
Jan-29 @ 20:00 UTC
Wind
  • 230° at 11 KTS
Visibility
10,000+ meters
Flight Rules
MVFR
Cloud Levels
  • Few at 1,100' AGL
  • Broken at 3,000' AGL
Temperature
C / 34°F
Dewpoint
C / 32°F
Humidity
93%
Altimeter
29.7" Hg
Pressure
1005.92 hPa
Previous

1 hour ago

EPKK 291930Z 24013KT 9999 FEW020 01/M00 Q1006
Observed
Jan-29 @ 19:30 UTC
Wind
  • 240° at 13 KTS
Visibility
10,000+ meters
Flight Rules
VFR
Cloud Levels
  • Few at 2,000' AGL
Temperature
C / 34°F
Dewpoint
C / 32°F
Humidity
93%
Altimeter
29.7" Hg
Pressure
1005.92 hPa